Carthage, Indiana
Current Conditions -  °F | °C
As of 3:53 AM on Thursday 18 Dec 2014 (Local Time) from KGEZ Reporting Station
Overcast Overcast  
Wind Chill: 27°   Ceiling: 1900
Heat Index: 27°   Visibility: 10mi
Dew Point: 18°   Wind: 3mph
Humidity: 69%   Direction: 40°NE
Pressure: 30.28"   Gusts: NA
Location:  39.74°N, 85.57°W
Report Text: KGEZ 180853Z AUTO 04003KT 10SM OVC019 M03/M08 A3028 RMK AO2 SLP262 T10281078 58002
Loading
Personal Weather Stations






























Interactive Weather Map New forecast layout! Learn more

10-Day Weather Forecast

Advertisements
Track Severe Weather on mobile